Time;durP1;ratioP1;P1;durP2;ratioP2;P2;SDS_P1;SDS_P2;PMS_P1;PMS_P2;Temp;Humidity;BMP_temperature;BMP_pressure;BME280_temperature;BME280_humidity;BME280_pressure;Samples;Min_cycle;Max_cycle;Signal;HPM_P1;HPM_P2
2023/06/03 00:01:13;;;;;;;4.90;2.77;;;;;;;21.04;64.73;98567.56;6126650;23;20211;-92
2023/06/03 00:03:44;;;;;;;7.00;3.20;;;;;;;21.03;64.37;98562.41;6125576;23;20156;-92
2023/06/03 00:06:12;;;;;;;8.87;3.73;;;;;;;20.99;64.13;98561.88;6126630;23;20136;-91
2023/06/03 00:08:40;;;;;;;5.10;3.03;;;;;;;20.96;64.26;98570.22;6125437;23;20659;-92
2023/06/03 00:11:05;;;;;;;7.33;3.40;;;;;;;20.92;64.25;98565.34;6125616;23;20234;-91
2023/06/03 00:13:32;;;;;;;6.80;3.37;;;;;;;20.86;63.79;98564.16;6126883;23;20151;-91
2023/06/03 00:15:58;;;;;;;6.83;3.40;;;;;;;20.79;63.91;98558.66;6126854;23;20151;-91
2023/06/03 00:18:24;;;;;;;7.20;3.20;;;;;;;20.74;64.03;98562.78;6126918;23;20209;-91
2023/06/03 00:20:50;;;;;;;8.40;3.50;;;;;;;20.67;64.32;98567.06;6126311;23;20191;-91
2023/06/03 00:23:16;;;;;;;5.53;3.60;;;;;;;20.59;64.87;98559.88;6125134;23;20168;-91
2023/06/03 00:25:43;;;;;;;6.37;3.30;;;;;;;20.57;64.56;98556.50;6125282;23;20164;-91
2023/06/03 00:28:09;;;;;;;6.10;3.67;;;;;;;20.48;64.63;98559.28;6125192;23;20155;-91
2023/06/03 00:30:35;;;;;;;7.03;3.63;;;;;;;20.40;65.21;98565.41;6125311;23;20466;-91
2023/06/03 00:33:01;;;;;;;6.83;3.30;;;;;;;20.35;65.02;98565.03;6125588;23;20179;-92
2023/06/03 00:35:27;;;;;;;5.83;3.23;;;;;;;20.30;64.63;98558.50;6126759;23;20155;-92
2023/06/03 00:37:54;;;;;;;7.30;3.43;;;;;;;20.26;64.60;98562.47;6125198;23;20170;-91
2023/06/03 00:40:20;;;;;;;9.20;3.70;;;;;;;20.18;64.60;98566.69;6126640;23;20626;-92
2023/06/03 00:42:46;;;;;;;5.67;3.17;;;;;;;20.10;64.61;98563.97;6125321;23;20156;-91
2023/06/03 00:45:12;;;;;;;7.77;3.40;;;;;;;20.07;64.32;98564.28;6125374;23;20544;-92
2023/06/03 00:47:39;;;;;;;9.77;4.43;;;;;;;20.02;63.92;98563.09;6126464;23;20152;-91
2023/06/03 00:50:09;;;;;;;7.33;3.70;;;;;;;20.06;63.50;98562.63;6126621;23;20150;-91
2023/06/03 00:52:38;;;;;;;8.13;3.67;;;;;;;20.07;63.40;98564.28;6126506;23;20239;-91
2023/06/03 00:55:04;;;;;;;6.77;2.93;;;;;;;20.10;62.78;98565.78;6126321;23;20152;-92
2023/06/03 00:57:31;;;;;;;11.37;3.67;;;;;;;20.06;62.64;98567.94;6126376;23;20531;-91
2023/06/03 00:59:57;;;;;;;5.43;3.10;;;;;;;20.02;62.89;98563.09;6126621;23;20186;-91
2023/06/03 01:02:26;;;;;;;7.83;2.90;;;;;;;19.94;63.72;98558.50;6126729;23;20152;-91
2023/06/03 01:04:55;;;;;;;8.43;3.23;;;;;;;19.94;63.77;98560.38;6125317;23;20155;-92
2023/06/03 01:07:42;;;;;;;8.07;3.53;;;;;;;19.96;63.24;98561.88;6126284;23;20182;-91
2023/06/03 01:10:26;;;;;;;5.23;2.97;;;;;;;19.90;63.29;98564.31;6125259;23;20175;-91
2023/06/03 01:13:14;;;;;;;5.27;3.03;;;;;;;19.82;63.43;98567.72;6125618;23;20156;-92
2023/06/03 01:15:44;;;;;;;10.00;3.30;;;;;;;19.91;63.33;98566.81;6125288;23;20144;-91
2023/06/03 01:18:14;;;;;;;7.70;3.50;;;;;;;20.07;63.21;98563.47;6125353;23;20239;-91
2023/06/03 01:20:42;;;;;;;6.43;3.53;;;;;;;19.91;64.14;98550.03;6126253;23;20709;-91
2023/06/03 01:23:28;;;;;;;6.00;2.97;;;;;;;19.81;64.52;98566.03;6125161;23;20163;-91
2023/06/03 01:25:57;;;;;;;6.73;3.37;;;;;;;19.79;64.99;98569.84;6125194;23;20171;-92
2023/06/03 01:28:23;;;;;;;8.30;3.37;;;;;;;19.68;66.24;98564.78;6126444;23;20231;-92
2023/06/03 01:30:51;;;;;;;5.53;3.33;;;;;;;19.56;66.95;98564.16;6125724;23;20182;-92
2023/06/03 01:33:19;;;;;;;6.30;2.93;;;;;;;19.50;65.67;98560.25;6126249;23;20147;-91
2023/06/03 01:35:48;;;;;;;7.23;3.80;;;;;;;19.44;65.64;98552.88;6125738;23;20239;-92
2023/06/03 01:38:16;;;;;;;7.57;3.37;;;;;;;19.45;65.46;98561.69;6126860;23;20198;-91
2023/06/03 01:40:42;;;;;;;5.87;2.83;;;;;;;19.48;65.24;98561.41;6126853;23;20205;-91
2023/06/03 01:43:08;;;;;;;7.47;3.10;;;;;;;19.45;65.19;98559.88;6126885;23;20214;-91
2023/06/03 01:45:33;;;;;;;14.57;3.30;;;;;;;19.52;64.84;98565.44;6126722;23;20198;-92
2023/06/03 01:47:59;;;;;;;5.93;3.33;;;;;;;19.45;64.50;98556.38;6126911;23;20227;-92
2023/06/03 01:50:25;;;;;;;7.00;3.13;;;;;;;19.37;64.97;98558.91;6127892;23;20286;-91
2023/06/03 01:52:52;;;;;;;6.60;3.80;;;;;;;19.35;65.45;98561.75;6128128;23;20162;-91
2023/06/03 01:55:18;;;;;;;7.00;3.50;;;;;;;19.34;65.53;98569.88;6127830;23;20163;-91
2023/06/03 01:57:47;;;;;;;6.10;3.23;;;;;;;19.31;65.63;98565.66;6127740;23;20148;-91
2023/06/03 02:00:13;;;;;;;8.27;3.57;;;;;;;19.26;65.77;98562.63;6127512;23;20187;-91
2023/06/03 02:02:39;;;;;;;4.10;2.57;;;;;;;19.26;65.86;98553.84;6127995;23;20151;-91
2023/06/03 02:05:05;;;;;;;7.80;3.67;;;;;;;19.22;65.78;98560.41;6126364;23;20491;-91
2023/06/03 02:07:31;;;;;;;7.17;3.47;;;;;;;19.25;65.67;98555.66;6127774;23;20162;-91
2023/06/03 02:09:58;;;;;;;11.53;3.90;;;;;;;19.24;65.47;98558.44;6126233;23;20167;-91
2023/06/03 02:12:25;;;;;;;11.03;3.47;;;;;;;19.23;65.38;98554.13;6127842;23;20152;-90
2023/06/03 02:14:54;;;;;;;6.10;3.37;;;;;;;19.20;65.59;98562.41;6127746;23;20152;-90
2023/06/03 02:17:24;;;;;;;6.23;3.37;;;;;;;19.29;65.19;98562.31;6126373;23;20217;-90
2023/06/03 02:19:50;;;;;;;5.37;2.90;;;;;;;19.31;64.94;98559.53;6126132;23;20279;-91
2023/06/03 02:22:17;;;;;;;6.90;3.77;;;;;;;19.30;64.74;98553.38;6127438;23;20573;-91
2023/06/03 02:24:43;;;;;;;5.07;3.00;;;;;;;19.28;64.78;98557.19;6127313;23;20610;-90
2023/06/03 02:27:10;;;;;;;5.70;2.93;;;;;;;19.22;65.17;98565.72;6127399;23;20159;-91
2023/06/03 02:29:37;;;;;;;6.03;3.23;;;;;;;19.18;65.67;98569.69;6127280;23;20159;-91
2023/06/03 02:32:02;;;;;;;5.00;3.23;;;;;;;19.11;66.25;98565.94;6127682;23;20155;-93
2023/06/03 02:34:28;;;;;;;11.47;3.30;;;;;;;18.99;66.74;98570.63;6126115;23;20159;-92
2023/06/03 02:36:55;;;;;;;7.40;3.80;;;;;;;19.01;67.03;98574.78;6126323;23;20159;-92
2023/06/03 02:39:21;;;;;;;8.57;4.10;;;;;;;19.03;66.81;98572.81;6127456;23;20147;-93
2023/06/03 02:41:47;;;;;;;9.47;3.37;;;;;;;19.03;66.73;98572.81;6127155;23;20195;-90
2023/06/03 02:44:13;;;;;;;5.30;3.47;;;;;;;19.04;66.98;98571.00;6126052;23;20159;-90
2023/06/03 02:46:40;;;;;;;9.30;4.10;;;;;;;19.07;66.93;98564.56;6125751;23;20155;-91
2023/06/03 02:49:08;;;;;;;7.53;3.40;;;;;;;19.13;67.04;98566.63;6126067;23;20164;-91
2023/06/03 02:51:36;;;;;;;6.77;3.67;;;;;;;19.20;66.92;98570.38;6125977;23;20521;-90
2023/06/03 02:54:03;;;;;;;6.40;3.07;;;;;;;19.21;66.97;98564.06;6127215;23;20213;-90
2023/06/03 02:56:30;;;;;;;6.03;3.07;;;;;;;19.19;67.25;98572.19;6125961;23;20497;-92
2023/06/03 02:58:55;;;;;;;6.37;3.13;;;;;;;19.10;67.79;98572.25;6127651;23;20465;-90
2023/06/03 03:01:22;;;;;;;6.43;3.43;;;;;;;19.08;67.98;98576.88;6125761;23;20183;-91
2023/06/03 03:03:48;;;;;;;5.93;3.40;;;;;;;19.04;68.65;98576.31;6125841;23;20579;-93
2023/06/03 03:06:15;;;;;;;5.33;3.40;;;;;;;19.06;68.81;98577.00;6125995;23;20296;-92
2023/06/03 03:08:43;;;;;;;9.43;3.70;;;;;;;19.20;68.35;98583.66;6127276;23;20214;-91
2023/06/03 03:11:11;;;;;;;6.57;3.50;;;;;;;19.26;68.45;98583.06;6126953;23;20581;-91
2023/06/03 03:13:36;;;;;;;7.00;3.67;;;;;;;19.20;68.81;98573.03;6125716;23;20154;-91
2023/06/03 03:16:03;;;;;;;7.13;3.30;;;;;;;19.21;69.08;98577.38;6125792;23;20166;-90
2023/06/03 03:18:30;;;;;;;6.30;3.23;;;;;;;19.21;69.32;98585.34;6127179;23;20148;-91
2023/06/03 03:20:56;;;;;;;6.10;3.50;;;;;;;19.17;69.51;98581.28;6125472;23;20196;-91
2023/06/03 03:23:22;;;;;;;7.57;3.50;;;;;;;19.39;68.09;98588.91;6125480;23;20159;-90
2023/06/03 03:25:49;;;;;;;7.37;3.50;;;;;;;19.45;67.59;98588.28;6125626;23;20156;-91
2023/06/03 03:28:16;;;;;;;8.63;3.87;;;;;;;19.50;67.19;98586.00;6126660;23;20155;-91
2023/06/03 03:30:41;;;;;;;7.67;4.10;;;;;;;19.60;67.12;98589.47;6126540;23;20631;-91
2023/06/03 03:33:07;;;;;;;6.97;3.90;;;;;;;19.52;67.71;98592.84;6126695;23;20191;-91
2023/06/03 03:35:39;;;;;;;12.97;3.97;;;;;;;19.56;67.78;98604.03;6126660;23;20297;-91
2023/06/03 03:38:08;;;;;;;7.67;3.73;;;;;;;19.69;66.65;98601.84;6126733;23;20159;-90
2023/06/03 03:40:38;;;;;;;9.40;3.33;;;;;;;19.77;66.50;98601.06;6126828;23;20186;-90
2023/06/03 03:43:04;;;;;;;9.33;3.70;;;;;;;19.81;65.60;98600.63;6126999;23;20216;-90
2023/06/03 03:45:36;;;;;;;6.93;3.20;;;;;;;19.84;65.20;98610.13;6126585;23;20161;-90
2023/06/03 03:48:12;;;;;;;7.13;3.30;;;;;;;19.85;65.15;98609.13;6125481;23;20147;-90
2023/06/03 03:50:47;;;;;;;8.27;3.37;;;;;;;19.90;64.76;98617.50;6126847;23;20142;-90
2023/06/03 03:53:22;;;;;;;6.70;3.37;;;;;;;19.94;64.64;98617.03;6127001;23;20143;-90
2023/06/03 03:55:53;;;;;;;5.63;3.17;;;;;;;19.98;64.45;98614.91;6127269;23;20138;-90
2023/06/03 03:58:22;;;;;;;6.00;3.33;;;;;;;20.02;63.81;98614.44;6126389;23;20148;-90
2023/06/03 04:00:48;;;;;;;5.73;2.80;;;;;;;19.98;63.09;98621.09;6126898;23;20183;-89
2023/06/03 04:03:17;;;;;;;6.43;3.17;;;;;;;20.01;63.42;98617.28;6126364;23;20159;-90
2023/06/03 04:05:45;;;;;;;6.07;2.83;;;;;;;20.08;62.48;98616.50;6127045;23;20285;-90
2023/06/03 04:08:35;;;;;;;5.80;3.37;;;;;;;20.06;63.26;98620.31;6127117;23;20151;-90
2023/06/03 04:11:03;;;;;;;6.17;3.10;;;;;;;20.08;63.89;98621.00;6126480;23;20133;-90
2023/06/03 04:13:29;;;;;;;6.63;3.87;;;;;;;20.03;65.54;98632.09;6125162;23;20159;-90
2023/06/03 04:16:00;;;;;;;9.23;3.87;;;;;;;20.07;66.31;98628.13;6126799;23;20222;-90
2023/06/03 04:18:26;;;;;;;7.53;3.87;;;;;;;20.08;67.12;98637.78;6125307;23;20568;-91
2023/06/03 04:20:56;;;;;;;11.37;3.80;;;;;;;20.20;67.45;98636.56;6126306;23;20257;-90
2023/06/03 04:23:27;;;;;;;8.67;4.00;;;;;;;20.28;67.65;98643.84;6126713;23;20539;-90
2023/06/03 04:25:55;;;;;;;6.20;2.90;;;;;;;20.35;67.48;98646.72;6125317;23;20295;-90
2023/06/03 04:28:20;;;;;;;7.67;3.83;;;;;;;20.44;66.40;98640.47;6125125;23;20160;-90
2023/06/03 04:30:46;;;;;;;5.87;3.40;;;;;;;20.57;66.13;98640.91;6126990;23;20283;-90
2023/06/03 04:33:11;;;;;;;11.00;3.80;;;;;;;20.61;65.77;98642.25;6127069;23;20575;-91
2023/06/03 04:35:37;;;;;;;5.47;3.10;;;;;;;20.68;65.76;98645.97;6126338;23;20148;-91
2023/06/03 04:38:04;;;;;;;6.80;3.33;;;;;;;20.73;66.22;98636.50;6127185;23;20160;-91
2023/06/03 04:40:30;;;;;;;5.07;3.13;;;;;;;20.83;66.22;98634.56;6125320;23;20687;-91
2023/06/03 04:42:57;;;;;;;5.07;2.97;;;;;;;20.92;66.28;98627.47;6125229;23;20186;-90
2023/06/03 04:45:23;;;;;;;8.47;3.67;;;;;;;21.06;66.37;98634.94;6126694;23;20489;-90
2023/06/03 04:47:52;;;;;;;8.47;3.43;;;;;;;21.16;66.14;98638.31;6125107;23;20170;-90
2023/06/03 04:50:20;;;;;;;6.63;3.57;;;;;;;21.22;66.45;98631.50;6126741;23;20155;-90
2023/06/03 04:52:49;;;;;;;11.40;3.83;;;;;;;21.31;66.57;98625.19;6125865;23;20552;-90
2023/06/03 04:55:15;;;;;;;5.93;3.30;;;;;;;21.44;65.85;98631.75;6126288;23;20148;-91
2023/06/03 04:57:45;;;;;;;5.70;3.07;;;;;;;21.51;65.13;98631.97;6125209;23;20179;-90
2023/06/03 05:00:14;;;;;;;5.67;2.93;;;;;;;21.63;64.21;98624.47;6126844;23;20179;-91
2023/06/03 05:02:44;;;;;;;7.33;2.90;;;;;;;21.70;63.74;98630.81;6126539;23;20171;-91
2023/06/03 05:05:11;;;;;;;5.60;2.67;;;;;;;21.84;63.01;98640.88;6126688;23;20135;-91
2023/06/03 05:07:38;;;;;;;6.50;2.70;;;;;;;21.93;62.42;98637.28;6125064;23;20156;-91
2023/06/03 05:10:04;;;;;;;5.27;2.40;;;;;;;21.94;62.29;98641.59;6127336;23;20148;-91
2023/06/03 05:12:30;;;;;;;6.10;2.80;;;;;;;22.01;61.75;98634.63;6128142;23;20152;-91
2023/06/03 05:14:55;;;;;;;4.60;2.27;;;;;;;22.10;61.45;98638.09;6127085;23;20474;-91
2023/06/03 05:17:22;;;;;;;4.70;2.47;;;;;;;22.21;60.73;98640.47;6128390;23;20218;-91
2023/06/03 05:19:48;;;;;;;6.17;3.07;;;;;;;22.36;58.88;98647.66;6126842;23;20179;-91
2023/06/03 05:22:14;;;;;;;5.73;3.03;;;;;;;22.48;59.26;98651.63;6128537;23;20220;-91
2023/06/03 05:24:41;;;;;;;5.70;3.20;;;;;;;22.56;60.16;98656.16;6128178;23;20158;-92
2023/06/03 05:27:08;;;;;;;5.10;2.93;;;;;;;22.69;57.97;98648.50;6126969;23;20163;-91
2023/06/03 05:29:34;;;;;;;6.43;3.17;;;;;;;22.80;58.05;98655.34;6126788;23;20492;-91
2023/06/03 05:32:00;;;;;;;6.70;3.70;;;;;;;22.81;58.21;98654.31;6128424;23;20183;-91
2023/06/03 05:34:25;;;;;;;7.17;3.03;;;;;;;22.91;57.25;98655.81;6128712;23;20147;-91
2023/06/03 05:36:52;;;;;;;9.77;3.93;;;;;;;23.09;57.44;98652.91;6127984;23;20148;-91
2023/06/03 05:39:19;;;;;;;5.37;3.00;;;;;;;23.18;56.71;98657.25;6127977;23;20152;-92
2023/06/03 05:41:45;;;;;;;6.60;3.20;;;;;;;23.30;56.72;98661.22;6127734;23;20670;-91
2023/06/03 05:44:11;;;;;;;5.07;3.00;;;;;;;23.39;56.82;98660.22;6128235;23;20155;-91
2023/06/03 05:46:38;;;;;;;4.67;3.07;;;;;;;23.57;56.92;98660.81;6127811;23;20161;-91
2023/06/03 05:49:04;;;;;;;5.30;2.53;;;;;;;23.82;55.03;98656.16;6127698;23;20183;-91
2023/06/03 05:51:29;;;;;;;7.17;3.00;;;;;;;24.03;55.79;98659.03;6126618;23;20545;-92
2023/06/03 05:53:56;;;;;;;6.33;3.10;;;;;;;24.27;51.49;98660.75;6128041;23;20159;-91
2023/06/03 05:56:22;;;;;;;7.43;3.67;;;;;;;24.30;54.38;98655.88;6127806;23;20598;-91
2023/06/03 05:58:48;;;;;;;5.83;2.67;;;;;;;24.56;52.37;98652.81;6128075;23;20230;-91
2023/06/03 06:01:13;;;;;;;8.83;2.97;;;;;;;24.70;50.86;98665.44;6126484;23;20270;-91
2023/06/03 06:03:41;;;;;;;5.87;2.93;;;;;;;24.79;49.45;98669.72;6127687;23;20222;-90
2023/06/03 06:06:08;;;;;;;7.47;2.47;;;;;;;24.90;47.68;98663.94;6128161;23;20243;-91
2023/06/03 06:08:35;;;;;;;4.60;2.50;;;;;;;24.94;48.41;98672.47;6127468;23;20235;-91
2023/06/03 06:11:00;;;;;;;3.63;2.23;;;;;;;24.94;49.06;98670.63;6127591;23;20148;-91
2023/06/03 06:13:25;;;;;;;5.17;2.87;;;;;;;24.97;48.80;98672.09;6126440;23;20488;-91
2023/06/03 06:16:03;;;;;;;7.97;3.07;;;;;;;25.10;48.98;98666.09;6127828;23;20222;-91
2023/06/03 06:18:29;;;;;;;5.50;2.40;;;;;;;25.14;50.51;98670.06;6126400;23;20160;-91
2023/06/03 06:20:59;;;;;;;5.67;2.80;;;;;;;25.29;48.29;98669.03;6126858;23;20187;-92
2023/06/03 06:23:27;;;;;;;5.60;2.33;;;;;;;25.34;49.00;98671.19;6127672;23;20595;-91
2023/06/03 06:25:55;;;;;;;7.57;2.73;;;;;;;25.46;48.14;98664.38;6127439;23;20170;-92
2023/06/03 06:28:26;;;;;;;6.70;2.70;;;;;;;25.51;44.40;98667.31;6127361;23;20148;-93
2023/06/03 06:30:54;;;;;;;7.43;2.77;;;;;;;25.54;45.75;98669.63;6127854;23;20133;-91
2023/06/03 06:33:20;;;;;;;9.80;3.00;;;;;;;25.40;44.57;98665.06;6125832;23;20194;-91
2023/06/03 06:35:46;;;;;;;7.63;3.00;;;;;;;25.46;44.78;98664.38;6125456;23;20563;-90
2023/06/03 06:38:13;;;;;;;8.17;2.43;;;;;;;25.50;44.35;98666.47;6125525;23;20152;-91
2023/06/03 06:40:40;;;;;;;4.60;2.70;;;;;;;25.66;45.96;98673.50;6125509;23;20188;-91
2023/06/03 06:43:07;;;;;;;4.63;2.50;;;;;;;25.71;44.87;98673.75;6124029;23;20175;-91
2023/06/03 06:45:36;;;;;;;5.33;2.30;;;;;;;25.67;45.93;98671.66;6124243;23;20256;-92
2023/06/03 06:48:08;;;;;;;5.33;2.87;;;;;;;25.64;46.64;98672.84;6125536;23;20152;-90
2023/06/03 06:50:55;;;;;;;5.13;2.80;;;;;;;25.57;46.49;98672.78;6126903;23;20155;-90
2023/06/03 06:53:23;;;;;;;6.50;3.13;;;;;;;25.67;46.34;98672.50;6125927;23;20264;-90
2023/06/03 06:55:54;;;;;;;5.83;2.67;;;;;;;25.77;46.29;98673.03;6127055;23;20226;-91
2023/06/03 06:58:21;;;;;;;5.50;2.67;;;;;;;25.88;46.79;98675.22;6127070;23;20148;-91
2023/06/03 07:00:47;;;;;;;4.40;2.60;;;;;;;26.03;47.68;98675.19;6127346;23;20179;-91
2023/06/03 07:03:17;;;;;;;6.73;2.97;;;;;;;26.17;45.42;98669.81;6126703;23;20162;-91
2023/06/03 07:05:53;;;;;;;5.53;3.07;;;;;;;26.22;45.04;98675.44;6123512;23;20195;-90
2023/06/03 07:08:24;;;;;;;5.50;2.70;;;;;;;26.30;45.79;98676.34;6126070;23;20163;-92
2023/06/03 07:10:59;;;;;;;6.70;3.57;;;;;;;26.39;44.74;98677.88;6124822;23;20549;-91
2023/06/03 07:13:26;;;;;;;6.17;2.67;;;;;;;26.47;45.57;98675.03;6126125;23;20138;-91
2023/06/03 07:15:53;;;;;;;6.17;3.00;;;;;;;26.52;46.70;98673.44;6126810;23;20152;-92
2023/06/03 07:18:27;;;;;;;4.87;2.67;;;;;;;26.72;46.26;98673.63;6126566;23;20228;-90
2023/06/03 07:20:55;;;;;;;5.43;2.53;;;;;;;26.82;45.63;98675.00;6125113;23;20208;-90
2023/06/03 07:23:36;;;;;;;;;;;;;;;;;;;;;
2023/06/03 07:26:04;;;;;;;6.30;2.47;;;;;;;27.00;44.71;98676.34;6122101;23;20658;-90
2023/06/03 07:28:33;;;;;;;4.27;2.33;;;;;;;26.97;44.51;98693.72;6125287;23;20218;-90
2023/06/03 07:31:03;;;;;;;7.17;2.53;;;;;;;27.07;43.96;98690.69;6125527;23;20179;-90
2023/06/03 07:33:35;;;;;;;6.50;2.87;;;;;;;27.19;43.40;98687.28;6126713;23;20192;-91
2023/06/03 07:36:04;;;;;;;8.67;2.73;;;;;;;27.18;43.78;98680.22;6125227;23;20154;-91
2023/06/03 07:38:55;;;;;;;5.73;2.50;;;;;;;27.20;45.47;98690.78;6126316;23;20175;-90
2023/06/03 07:41:51;;;;;;;5.80;2.90;;;;;;;27.34;46.35;98690.66;6126135;23;20176;-91
2023/06/03 07:44:45;;;;;;;4.70;2.80;;;;;;;27.66;44.77;98691.06;6125705;23;20613;-90
2023/06/03 07:47:17;;;;;;;4.50;2.65;;;;;;;27.94;43.90;98689.97;6093309;23;20170;-91
2023/06/03 07:49:48;;;;;;;4.72;2.80;;;;;;;28.04;43.39;98706.59;6125475;23;20572;-92
2023/06/03 07:52:21;;;;;;;5.72;2.80;;;;;;;28.05;45.34;98693.97;6126005;23;20152;-90
2023/06/03 07:54:47;;;;;;;5.63;2.63;;;;;;;28.33;43.79;98700.03;6126329;23;20595;-91
2023/06/03 07:57:13;;;;;;;4.93;2.58;;;;;;;28.47;42.89;98699.06;6125997;23;20163;-90
2023/06/03 07:59:49;;;;;;;5.75;2.70;;;;;;;28.63;42.82;98697.84;6124874;23;20646;-91
2023/06/03 08:02:15;;;;;;;6.63;3.10;;;;;;;28.48;42.32;98706.13;6124198;23;20151;-92
2023/06/03 08:04:41;;;;;;;4.65;2.70;;;;;;;28.56;43.32;98702.41;6126266;23;20171;-92
2023/06/03 08:07:07;;;;;;;5.63;3.38;;;;;;;28.69;42.89;98702.44;6126115;23;20158;-91
2023/06/03 08:09:37;;;;;;;5.38;2.50;;;;;;;28.68;41.71;98708.03;6125811;23;20152;-91
2023/06/03 08:12:04;;;;;;;5.50;2.63;;;;;;;28.56;41.82;98689.72;6122114;23;20155;-91
2023/06/03 08:14:33;;;;;;;6.20;3.10;;;;;;;28.70;43.50;98695.16;6122929;23;20155;-90
2023/06/03 08:17:06;;;;;;;4.35;2.83;;;;;;;28.85;42.36;98695.81;6124328;23;20147;-90
2023/06/03 08:19:33;;;;;;;5.72;2.75;;;;;;;29.06;43.09;98687.50;6123920;23;20139;-91
2023/06/03 08:22:00;;;;;;;7.00;3.45;;;;;;;29.12;40.59;98687.47;6122711;23;20180;-92
2023/06/03 08:24:25;;;;;;;7.22;3.20;;;;;;;28.98;42.51;98687.72;6122675;23;20156;-91
2023/06/03 08:26:51;;;;;;;5.60;2.92;;;;;;;29.14;42.40;98687.28;6126004;23;20152;-90
2023/06/03 08:29:16;;;;;;;6.00;3.35;;;;;;;29.14;41.79;98687.28;6126632;23;20162;-91
2023/06/03 08:31:42;;;;;;;4.75;2.85;;;;;;;29.28;43.28;98686.22;6126354;23;20627;-90
2023/06/03 08:34:07;;;;;;;4.63;2.60;;;;;;;29.29;41.72;98685.19;6126263;23;20158;-90
2023/06/03 08:36:34;;;;;;;7.45;3.15;;;;;;;29.23;41.84;98694.13;6125861;23;20151;-90
2023/06/03 08:39:00;;;;;;;7.85;3.10;;;;;;;29.37;40.77;98698.47;6125933;23;20152;-91
2023/06/03 08:41:28;;;;;;;5.75;2.83;;;;;;;29.27;38.37;98692.69;6126538;23;20320;-90
2023/06/03 08:44:02;;;;;;;8.45;2.50;;;;;;;29.31;40.43;98698.47;6126234;23;20199;-91
2023/06/03 08:46:41;;;;;;;6.20;3.15;;;;;;;29.32;40.12;98697.44;6128914;23;20160;-90
2023/06/03 08:49:10;;;;;;;8.93;2.78;;;;;;;29.39;39.87;98693.69;6128629;23;20135;-90
2023/06/03 08:51:41;;;;;;;7.55;2.83;;;;;;;29.55;39.74;98698.66;6128118;23;20175;-91
2023/06/03 08:54:13;;;;;;;5.95;3.42;;;;;;;29.55;41.18;98704.03;6128520;23;20176;-90
2023/06/03 08:56:47;;;;;;;9.57;2.60;;;;;;;29.61;41.77;98696.97;6128219;23;20179;-91
2023/06/03 08:59:18;;;;;;;7.90;2.80;;;;;;;29.68;39.65;98703.16;6128564;23;20136;-92
2023/06/03 09:01:46;;;;;;;5.05;3.05;;;;;;;29.69;40.78;98699.44;6128314;23;20274;-91
2023/06/03 09:04:14;;;;;;;5.43;2.45;;;;;;;29.91;38.92;98700.81;6126378;23;20168;-92
2023/06/03 09:06:46;;;;;;;4.57;2.58;;;;;;;29.94;38.87;98707.69;6126186;23;20242;-92
2023/06/03 09:09:13;;;;;;;4.50;2.17;;;;;;;30.13;39.70;98702.19;6127112;23;20171;-92
2023/06/03 09:11:43;;;;;;;5.55;2.70;;;;;;;30.32;38.55;98701.22;6127941;23;20664;-91
2023/06/03 09:14:21;;;;;;;5.78;2.22;;;;;;;30.45;37.95;98694.97;6124155;23;20175;-91
2023/06/03 09:16:56;;;;;;;3.95;2.33;;;;;;;30.59;39.16;98695.69;6126623;23;20186;-92
2023/06/03 09:19:52;;;;;;;;;;;;;;;;;;;;;
2023/06/03 09:22:19;;;;;;;3.90;2.20;;;;;;;30.59;37.52;98690.28;6128183;23;20231;-92
2023/06/03 09:24:45;;;;;;;5.32;2.92;;;;;;;30.74;39.43;98694.31;6126626;23;20163;-93
2023/06/03 09:27:14;;;;;;;4.93;2.53;;;;;;;30.86;40.17;98695.28;6127921;23;20234;-91
2023/06/03 09:29:41;;;;;;;4.70;2.65;;;;;;;30.93;39.01;98698.78;6127340;23;20230;-92
2023/06/03 09:32:08;;;;;;;9.55;2.80;;;;;;;31.22;37.99;98689.16;6127558;23;20158;-92
2023/06/03 09:34:36;;;;;;;5.43;2.80;;;;;;;31.29;39.20;98694.50;6126957;23;20215;-91
2023/06/03 09:37:10;;;;;;;6.05;2.67;;;;;;;31.42;38.65;98688.97;6150096;23;20198;-92
2023/06/03 09:39:43;;;;;;;6.53;2.50;;;;;;;31.53;35.90;98693.63;6127899;23;20607;-92
2023/06/03 09:42:11;;;;;;;4.97;2.72;;;;;;;31.54;36.43;98700.72;6102804;23;20263;-87
2023/06/03 09:44:49;;;;;;;5.30;2.30;;;;;;;31.53;37.00;98707.19;6123129;23;20816;-86
2023/06/03 09:47:16;;;;;;;5.38;2.97;;;;;;;31.37;38.55;98708.56;6125424;23;20155;-86
2023/06/03 09:50:04;;;;;;;6.20;2.13;;;;;;;31.43;39.02;98712.28;6126383;23;20152;-86
2023/06/03 09:52:38;;;;;;;4.95;2.50;;;;;;;31.51;37.90;98712.00;6148079;23;20152;-86
2023/06/03 09:55:10;;;;;;;4.80;2.58;;;;;;;31.55;37.18;98710.53;6124445;23;20258;-87
2023/06/03 09:57:37;;;;;;;5.60;2.70;;;;;;;31.48;36.98;98720.59;6124624;23;20140;-86
2023/06/03 10:00:12;;;;;;;7.68;2.42;;;;;;;31.41;38.28;98711.69;6124509;23;20186;-85
2023/06/03 10:02:44;;;;;;;5.32;2.47;;;;;;;31.41;38.91;98717.94;6124670;23;20226;-87
2023/06/03 10:05:31;;;;;;;6.60;2.90;;;;;;;31.53;37.39;98718.03;6123329;23;20756;-86
2023/06/03 10:07:58;;;;;;;4.03;2.58;;;;;;;31.51;38.68;98720.13;6127222;23;20605;-85
2023/06/03 10:10:25;;;;;;;6.63;2.92;;;;;;;31.46;37.95;98718.13;6127038;23;20157;-85
2023/06/03 10:12:52;;;;;;;5.25;2.60;;;;;;;31.50;37.50;98715.75;6127057;23;20169;-85
2023/06/03 10:15:37;;;;;;;4.95;2.45;;;;;;;31.60;37.80;98721.53;6099464;23;20207;-86
2023/06/03 10:18:06;;;;;;;4.63;2.72;;;;;;;31.60;38.61;98716.91;6121141;23;20211;-86
2023/06/03 10:20:39;;;;;;;5.05;2.42;;;;;;;31.72;37.97;98710.75;6097552;23;20206;-85
2023/06/03 10:23:09;;;;;;;6.65;2.53;;;;;;;31.74;36.60;98712.16;6097585;23;20526;-86
2023/06/03 10:25:47;;;;;;;6.15;2.53;;;;;;;31.72;37.09;98710.75;6097736;23;20153;-86
2023/06/03 10:28:14;;;;;;;4.47;2.58;;;;;;;31.72;38.75;98713.44;6097869;23;20152;-85
2023/06/03 10:30:41;;;;;;;9.77;3.08;;;;;;;31.59;38.15;98714.44;6095984;23;20183;-85
2023/06/03 10:33:09;;;;;;;5.32;2.60;;;;;;;31.40;38.60;98710.00;6097530;23;20163;-85
2023/06/03 10:35:37;;;;;;;4.93;2.42;;;;;;;31.39;37.94;98713.78;6097154;23;20149;-86
2023/06/03 10:38:07;;;;;;;4.75;2.67;;;;;;;31.44;37.03;98712.06;6096063;23;20730;-85
2023/06/03 10:40:34;;;;;;;5.55;2.15;;;;;;;31.43;37.99;98714.97;6097234;23;20182;-86
2023/06/03 10:43:02;;;;;;;5.10;2.53;;;;;;;31.41;38.44;98717.09;6095930;23;20489;-86
2023/06/03 10:45:30;;;;;;;5.45;2.65;;;;;;;31.23;39.37;98715.19;6097215;23;20163;-85
2023/06/03 10:48:07;;;;;;;4.65;2.60;;;;;;;31.17;38.42;98717.94;6097519;23;20643;-86
2023/06/03 10:50:51;;;;;;;6.22;2.63;;;;;;;31.25;39.00;98718.50;6097425;23;20129;-86
2023/06/03 10:53:39;;;;;;;5.45;2.40;;;;;;;31.44;38.93;98719.34;6097094;23;20137;-85
2023/06/03 10:56:29;;;;;;;5.32;2.42;;;;;;;31.45;38.83;98710.16;6097620;23;20152;-86
2023/06/03 10:59:05;;;;;;;5.88;2.28;;;;;;;31.12;38.32;98732.16;6093564;23;20219;-86
2023/06/03 11:02:03;;;;;;;5.10;2.83;;;;;;;31.07;39.48;98731.16;6095944;23;20631;-85
2023/06/03 11:04:32;;;;;;;4.57;2.22;;;;;;;30.86;39.56;98725.06;6120357;23;20188;-86
2023/06/03 11:07:00;;;;;;;6.80;2.35;;;;;;;30.77;39.19;98720.13;6095845;23;20160;-86
2023/06/03 11:09:40;;;;;;;4.72;2.67;;;;;;;30.72;40.02;98725.34;6120104;23;20160;-86
2023/06/03 11:12:15;;;;;;;4.28;2.30;;;;;;;30.79;40.14;98726.16;6096947;23;20143;-86
2023/06/03 11:14:48;;;;;;;5.68;2.42;;;;;;;30.90;39.74;98717.31;6097092;23;20152;-86
2023/06/03 11:17:19;;;;;;;4.05;2.08;;;;;;;31.09;39.32;98724.47;6097184;23;20207;-86
2023/06/03 11:19:44;;;;;;;5.53;2.40;;;;;;;31.52;39.87;98724.53;6096720;23;20175;-86
2023/06/03 11:22:11;;;;;;;3.90;2.15;;;;;;;31.66;39.75;98726.00;6096403;23;20204;-86
2023/06/03 11:24:40;;;;;;;6.32;2.33;;;;;;;31.62;38.07;98719.41;6096934;23;20168;-87
2023/06/03 11:27:14;;;;;;;4.63;2.00;;;;;;;31.64;39.03;98725.41;6095429;23;20171;-86
2023/06/03 11:29:46;;;;;;;5.00;2.60;;;;;;;31.74;38.83;98714.88;6096129;23;20465;-86
2023/06/03 11:32:27;;;;;;;6.82;2.35;;;;;;;31.72;39.01;98724.28;6095148;23;20152;-86
2023/06/03 11:34:58;;;;;;;4.43;2.08;;;;;;;31.79;38.12;98723.16;6096788;23;20145;-87
2023/06/03 11:37:44;;;;;;;3.92;2.38;;;;;;;31.65;38.42;98718.13;6095929;23;20550;-87
2023/06/03 11:40:16;;;;;;;5.50;2.85;;;;;;;31.69;38.29;98714.72;6097035;23;20227;-87
2023/06/03 11:42:48;;;;;;;6.88;2.38;;;;;;;31.52;37.38;98721.81;6097864;23;20438;-86
2023/06/03 11:45:19;;;;;;;5.18;2.88;;;;;;;31.55;37.71;98714.03;6097365;23;20157;-86
2023/06/03 11:47:56;;;;;;;5.22;2.28;;;;;;;31.40;38.51;98715.44;6097518;23;20207;-86